createdAt,value
2022-09-17T00:01:33.466Z,3.97
2022-09-17T00:04:04.386Z,6.10
2022-09-17T00:06:34.470Z,7.37
2022-09-17T00:09:02.064Z,5.87
2022-09-17T00:11:32.525Z,6.90
2022-09-17T00:14:01.732Z,7.10
2022-09-17T00:16:33.233Z,6.30
2022-09-17T00:19:00.971Z,5.83
2022-09-17T00:21:28.905Z,6.23
2022-09-17T00:23:57.666Z,7.67
2022-09-17T00:26:25.562Z,9.70
2022-09-17T00:28:53.612Z,5.67
2022-09-17T00:31:20.772Z,10.87
2022-09-17T00:33:49.936Z,7.17
2022-09-17T00:36:17.603Z,7.40
2022-09-17T00:38:44.878Z,8.17
2022-09-17T00:41:26.677Z,9.47
2022-09-17T00:43:57.212Z,8.57
2022-09-17T00:46:31.978Z,6.70
2022-09-17T00:49:04.407Z,16.33
2022-09-17T00:51:36.166Z,8.40
2022-09-17T00:54:06.905Z,13.67
2022-09-17T00:56:37.229Z,7.87
2022-09-17T00:59:05.419Z,5.87
2022-09-17T01:01:33.450Z,6.50
2022-09-17T01:04:02.196Z,6.80
2022-09-17T01:06:35.028Z,9.27
2022-09-17T01:09:21.545Z,6.70
2022-09-17T01:12:09.510Z,8.07
2022-09-17T01:14:52.095Z,8.87
2022-09-17T01:17:27.440Z,9.90
2022-09-17T01:20:37.084Z,11.37
2022-09-17T01:23:38.545Z,10.07
2022-09-17T01:26:33.042Z,9.47
2022-09-17T01:29:12.060Z,7.80
2022-09-17T01:31:48.688Z,7.40
2022-09-17T01:34:26.406Z,11.07
2022-09-17T01:37:05.229Z,13.47
2022-09-17T01:39:43.721Z,11.87
2022-09-17T01:42:19.435Z,10.43
2022-09-17T01:44:55.919Z,12.47
2022-09-17T01:47:33.753Z,10.97
2022-09-17T01:50:05.464Z,9.57
2022-09-17T01:52:43.324Z,17.73
2022-09-17T01:55:14.486Z,14.23
2022-09-17T01:57:47.528Z,16.73
2022-09-17T02:00:18.434Z,20.77
2022-09-17T02:02:54.072Z,17.23
2022-09-17T02:05:28.496Z,21.10
2022-09-17T02:08:06.331Z,25.90
2022-09-17T02:10:37.359Z,15.77
2022-09-17T02:13:13.019Z,22.83
2022-09-17T02:15:48.042Z,16.67
2022-09-17T02:18:27.809Z,20.00
2022-09-17T02:21:03.605Z,19.17
2022-09-17T02:23:37.146Z,18.73
2022-09-17T02:26:09.670Z,20.93
2022-09-17T02:28:43.084Z,19.20
2022-09-17T02:31:15.013Z,23.33
2022-09-17T02:33:51.561Z,22.90
2022-09-17T02:36:24.555Z,20.20
2022-09-17T02:39:00.868Z,18.57
2022-09-17T02:41:41.477Z,20.97
2022-09-17T02:44:18.752Z,17.30
2022-09-17T02:47:14.884Z,17.67
2022-09-17T02:50:11.151Z,21.10
2022-09-17T02:52:55.459Z,20.17
2022-09-17T02:55:32.255Z,23.37
2022-09-17T02:58:10.238Z,20.23
2022-09-17T03:00:37.945Z,21.23
2022-09-17T03:03:11.933Z,28.13
2022-09-17T03:05:43.184Z,19.10
2022-09-17T03:08:14.809Z,19.00
2022-09-17T03:10:42.506Z,18.43
2022-09-17T03:13:10.240Z,25.13
2022-09-17T03:15:37.985Z,27.70
2022-09-17T03:18:05.555Z,21.93
2022-09-17T03:20:33.344Z,18.50
2022-09-17T03:23:02.728Z,20.90
2022-09-17T03:25:30.279Z,21.90
2022-09-17T03:27:58.628Z,24.67
2022-09-17T03:30:25.611Z,23.70
2022-09-17T03:32:53.700Z,24.53
2022-09-17T03:35:21.497Z,27.23
2022-09-17T03:37:49.564Z,20.10
2022-09-17T03:40:19.124Z,21.87
2022-09-17T03:42:47.407Z,25.40
2022-09-17T03:45:14.863Z,25.67
2022-09-17T03:47:42.619Z,23.73
2022-09-17T03:50:13.899Z,18.00
2022-09-17T03:52:44.294Z,20.43
2022-09-17T03:55:12.076Z,27.53
2022-09-17T03:57:41.309Z,21.57
2022-09-17T04:00:10.515Z,18.37
2022-09-17T04:02:42.262Z,22.87
2022-09-17T04:05:10.920Z,22.67
2022-09-17T04:07:40.509Z,14.87
2022-09-17T04:10:09.820Z,20.70
2022-09-17T04:12:37.904Z,23.97
2022-09-17T04:15:10.393Z,24.30
2022-09-17T04:17:38.452Z,18.77
2022-09-17T04:20:07.870Z,24.27
2022-09-17T04:22:39.577Z,17.03
2022-09-17T04:25:10.516Z,16.47
2022-09-17T04:27:37.999Z,23.00
2022-09-17T04:30:08.465Z,23.67
2022-09-17T04:32:36.987Z,17.50
2022-09-17T04:35:07.580Z,23.83
2022-09-17T04:37:36.414Z,24.47
2022-09-17T04:40:07.894Z,16.47
2022-09-17T04:42:35.674Z,20.17
2022-09-17T04:45:03.760Z,25.37
2022-09-17T04:47:32.364Z,17.97
2022-09-17T04:49:59.369Z,22.90
2022-09-17T04:52:30.843Z,17.97
2022-09-17T04:54:58.654Z,20.63
2022-09-17T04:57:26.187Z,19.63
2022-09-17T04:59:53.785Z,17.30
2022-09-17T05:02:22.862Z,18.87
2022-09-17T05:04:51.022Z,20.80
2022-09-17T05:07:18.172Z,23.13
2022-09-17T05:09:45.033Z,18.60
2022-09-17T05:12:11.832Z,19.23
2022-09-17T05:14:38.668Z,16.27
2022-09-17T05:17:05.567Z,21.80
2022-09-17T05:19:32.415Z,21.73
2022-09-17T05:22:00.875Z,17.83
2022-09-17T05:24:27.818Z,20.43
2022-09-17T05:26:55.272Z,17.70
2022-09-17T05:29:22.112Z,20.27
2022-09-17T05:31:49.449Z,19.93
2022-09-17T05:34:16.306Z,20.97
2022-09-17T05:36:43.460Z,18.37
2022-09-17T05:39:11.661Z,22.57
2022-09-17T05:41:38.871Z,21.10
2022-09-17T05:44:05.827Z,19.07
2022-09-17T05:46:32.998Z,19.87
2022-09-17T05:48:59.911Z,24.07
2022-09-17T05:51:27.183Z,18.40
2022-09-17T05:53:55.101Z,20.03
2022-09-17T05:56:24.207Z,24.07
2022-09-17T05:58:54.983Z,19.57
2022-09-17T06:01:22.149Z,20.27
2022-09-17T06:03:49.096Z,17.77
2022-09-17T06:06:16.347Z,21.37
2022-09-17T06:08:43.108Z,17.37
2022-09-17T06:11:10.445Z,20.47
2022-09-17T06:13:38.538Z,14.50
2022-09-17T06:16:06.602Z,17.73
2022-09-17T06:18:33.880Z,21.27
2022-09-17T06:21:03.186Z,24.10
2022-09-17T06:23:35.465Z,26.43
2022-09-17T06:26:04.617Z,16.77
2022-09-17T06:28:32.741Z,21.07
2022-09-17T06:31:03.558Z,17.80
2022-09-17T06:33:31.413Z,14.43
2022-09-17T06:36:00.891Z,23.60
2022-09-17T06:38:28.869Z,18.80
2022-09-17T06:40:57.400Z,18.73
2022-09-17T06:43:25.090Z,22.30
2022-09-17T06:45:53.187Z,14.27
2022-09-17T06:48:21.990Z,25.27
2022-09-17T06:50:49.344Z,26.53
2022-09-17T06:53:16.949Z,17.87
2022-09-17T06:55:44.515Z,21.47
2022-09-17T06:58:12.015Z,20.73
2022-09-17T07:00:39.215Z,20.20
2022-09-17T07:03:06.438Z,16.20
2022-09-17T07:05:34.987Z,22.43
2022-09-17T07:08:03.259Z,15.77
2022-09-17T07:10:31.318Z,20.63
2022-09-17T07:12:59.112Z,15.47
2022-09-17T07:15:26.522Z,19.33
2022-09-17T07:17:53.776Z,18.50
2022-09-17T07:20:21.006Z,20.93
2022-09-17T07:22:57.541Z,19.63
2022-09-17T07:25:25.091Z,18.27
2022-09-17T07:27:51.955Z,16.13
2022-09-17T07:30:19.152Z,19.80
2022-09-17T07:32:46.210Z,22.53
2022-09-17T07:35:13.226Z,24.47
2022-09-17T07:37:40.068Z,23.13
2022-09-17T07:40:09.293Z,23.50
2022-09-17T07:42:36.223Z,17.73
2022-09-17T07:45:03.872Z,21.00
2022-09-17T07:47:30.753Z,18.23
2022-09-17T07:49:58.060Z,21.27
2022-09-17T07:52:24.916Z,15.87
2022-09-17T07:54:52.027Z,18.87
2022-09-17T07:57:20.244Z,22.83
2022-09-17T07:59:47.127Z,25.40
2022-09-17T08:02:14.344Z,14.57
2022-09-17T08:04:42.816Z,19.10
2022-09-17T08:07:11.720Z,21.10
2022-09-17T08:09:38.980Z,17.17
2022-09-17T08:12:06.333Z,21.03
2022-09-17T08:14:34.863Z,19.27
2022-09-17T08:17:01.700Z,17.77
2022-09-17T08:19:32.491Z,13.23
2022-09-17T08:21:59.377Z,17.10
2022-09-17T08:24:27.083Z,23.43
2022-09-17T08:26:54.168Z,12.43
2022-09-17T08:29:21.348Z,12.93
2022-09-17T08:31:49.977Z,19.60
2022-09-17T08:34:17.236Z,12.57
2022-09-17T08:36:44.083Z,17.13
2022-09-17T08:39:12.487Z,23.07
2022-09-17T08:42:05.171Z,21.93
2022-09-17T08:44:41.373Z,19.97
2022-09-17T08:47:19.850Z,21.37
2022-09-17T08:49:52.462Z,26.13
2022-09-17T08:53:04.056Z,18.07
2022-09-17T08:55:37.142Z,18.10
2022-09-17T08:58:31.778Z,14.67
2022-09-17T09:01:07.431Z,17.33
2022-09-17T09:03:50.039Z,17.80
2022-09-17T09:06:18.035Z,21.33
2022-09-17T09:08:51.556Z,14.30
2022-09-17T09:11:26.226Z,16.77
2022-09-17T09:13:58.025Z,14.83
2022-09-17T09:16:28.483Z,17.80
2022-09-17T09:19:05.071Z,17.20
2022-09-17T09:21:41.180Z,18.37
2022-09-17T09:24:18.053Z,19.07
2022-09-17T09:26:47.836Z,17.37
2022-09-17T09:29:22.079Z,21.33
2022-09-17T09:32:02.852Z,15.07
2022-09-17T09:34:35.126Z,15.83
2022-09-17T09:37:12.555Z,24.20
2022-09-17T09:39:45.909Z,20.80
2022-09-17T09:42:20.412Z,15.63
2022-09-17T09:44:47.729Z,16.43
2022-09-17T09:47:29.645Z,23.67
2022-09-17T09:50:11.338Z,16.23
2022-09-17T09:52:48.946Z,14.90
2022-09-17T09:55:51.500Z,15.10
2022-09-17T09:58:27.171Z,15.13
2022-09-17T10:00:54.421Z,15.83
2022-09-17T10:03:23.187Z,17.20
2022-09-17T10:05:56.550Z,15.33
2022-09-17T10:08:24.405Z,14.93
2022-09-17T10:10:59.996Z,17.13
2022-09-17T10:13:28.684Z,14.53
2022-09-17T10:15:55.980Z,21.20
2022-09-17T10:18:24.335Z,12.27
2022-09-17T10:20:58.316Z,19.20
2022-09-17T10:23:28.061Z,13.63
2022-09-17T10:25:55.817Z,18.07
2022-09-17T10:28:39.931Z,11.77
2022-09-17T10:31:10.667Z,12.27
2022-09-17T10:33:41.400Z,11.03
2022-09-17T10:36:13.464Z,11.70
2022-09-17T10:38:42.159Z,10.63
2022-09-17T10:41:12.283Z,17.70
2022-09-17T10:43:39.969Z,14.17
2022-09-17T10:46:09.920Z,9.60
2022-09-17T10:48:42.275Z,18.13
2022-09-17T10:51:11.415Z,15.13
2022-09-17T10:54:03.036Z,10.83
2022-09-17T10:56:33.879Z,16.20
2022-09-17T10:59:18.678Z,10.63
2022-09-17T11:01:56.608Z,10.50
2022-09-17T11:04:36.343Z,15.47
2022-09-17T11:07:20.921Z,12.30
2022-09-17T11:09:56.201Z,15.33
2022-09-17T11:12:42.387Z,18.20
2022-09-17T11:15:25.199Z,15.60
2022-09-17T11:18:25.040Z,12.77
2022-09-17T11:21:12.119Z,10.10
2022-09-17T11:24:06.173Z,15.03
2022-09-17T11:26:39.515Z,15.13
2022-09-17T11:29:31.226Z,17.97
2022-09-17T11:32:06.462Z,10.50
2022-09-17T11:34:38.348Z,10.50
2022-09-17T11:37:11.487Z,10.23
2022-09-17T11:39:47.366Z,6.37
2022-09-17T11:42:19.956Z,11.40
2022-09-17T11:44:52.426Z,11.67
2022-09-17T11:47:29.293Z,11.63
2022-09-17T11:50:03.025Z,14.60
2022-09-17T11:52:38.018Z,15.07
2022-09-17T11:55:19.426Z,12.53
2022-09-17T11:57:49.655Z,15.17
2022-09-17T12:00:19.708Z,12.10
2022-09-17T12:02:53.120Z,11.23
2022-09-17T12:05:27.400Z,8.63
2022-09-17T12:07:59.570Z,12.03
2022-09-17T12:10:37.956Z,5.60
2022-09-17T12:13:19.371Z,8.23
2022-09-17T12:15:53.327Z,7.27
2022-09-17T12:18:37.342Z,7.47
2022-09-17T12:21:09.191Z,7.70
2022-09-17T12:23:41.350Z,4.43
2022-09-17T12:26:34.386Z,6.70
2022-09-17T12:29:10.860Z,9.70
2022-09-17T12:31:46.806Z,8.80
2022-09-17T12:34:30.470Z,10.03
2022-09-17T12:37:08.496Z,9.43
2022-09-17T12:40:03.212Z,7.27
2022-09-17T12:42:49.989Z,8.10
2022-09-17T12:45:32.457Z,5.80
2022-09-17T12:48:17.137Z,5.77
2022-09-17T12:50:55.714Z,5.30
2022-09-17T12:53:29.438Z,7.60
2022-09-17T12:56:10.524Z,7.90
2022-09-17T12:58:54.929Z,4.80
2022-09-17T13:01:29.263Z,8.90
2022-09-17T13:04:05.253Z,7.03
2022-09-17T13:07:06.794Z,11.73
2022-09-17T13:10:00.724Z,11.00
2022-09-17T13:12:34.457Z,10.97
2022-09-17T13:15:47.275Z,13.43
2022-09-17T13:18:26.492Z,7.83
2022-09-17T13:21:03.071Z,8.50
2022-09-17T13:23:34.298Z,10.10
2022-09-17T13:26:08.180Z,8.77
2022-09-17T13:28:47.275Z,9.67
2022-09-17T13:31:23.390Z,11.03
2022-09-17T13:33:59.063Z,8.80
2022-09-17T13:36:46.128Z,11.97
2022-09-17T13:39:36.979Z,11.23
2022-09-17T13:42:11.677Z,9.40
2022-09-17T13:44:45.857Z,6.57
2022-09-17T13:47:28.981Z,9.93
2022-09-17T13:50:02.251Z,18.37
2022-09-17T13:52:52.812Z,7.80
2022-09-17T13:55:35.841Z,8.93
2022-09-17T13:58:07.835Z,18.13
2022-09-17T14:00:54.385Z,9.37
2022-09-17T14:03:56.100Z,15.27
2022-09-17T14:36:52.480Z,10.17
2022-09-17T14:39:22.785Z,8.63
2022-09-17T14:41:53.356Z,9.53
2022-09-17T14:44:21.667Z,6.93
2022-09-17T14:46:56.380Z,14.17
2022-09-17T14:49:25.549Z,7.37
2022-09-17T14:51:54.768Z,9.10
2022-09-17T14:54:25.017Z,10.53
2022-09-17T14:56:55.224Z,9.10
2022-09-17T14:59:27.487Z,8.03
2022-09-17T15:01:54.547Z,8.63
2022-09-17T15:04:24.216Z,8.20
2022-09-17T15:06:51.602Z,8.30
2022-09-17T15:09:24.432Z,8.53
2022-09-17T15:11:54.068Z,4.80
2022-09-17T15:14:25.962Z,7.37
2022-09-17T15:16:56.268Z,5.90
2022-09-17T15:19:28.545Z,14.53
2022-09-17T15:21:57.273Z,10.00
2022-09-17T15:24:36.999Z,10.90
2022-09-17T15:27:09.348Z,6.20
2022-09-17T15:29:38.660Z,12.20
2022-09-17T15:32:06.603Z,6.00
2022-09-17T15:34:33.790Z,7.57
2022-09-17T15:37:05.487Z,5.57
2022-09-17T15:39:40.329Z,12.13
2022-09-17T15:42:18.991Z,8.17
2022-09-17T15:44:46.468Z,10.30
2022-09-17T15:47:54.033Z,14.43
2022-09-17T15:50:23.176Z,7.40
2022-09-17T15:52:51.333Z,11.33
2022-09-17T15:55:35.834Z,10.20
2022-09-17T15:58:04.935Z,14.20
2022-09-17T16:00:32.818Z,6.00
2022-09-17T16:03:16.923Z,6.23
2022-09-17T16:05:46.175Z,7.30
2022-09-17T16:08:24.368Z,10.40
2022-09-17T16:10:53.085Z,8.77
2022-09-17T16:13:20.017Z,11.60
2022-09-17T16:15:48.385Z,8.93
2022-09-17T16:18:15.687Z,10.57
2022-09-17T16:20:42.871Z,12.17
2022-09-17T16:23:09.730Z,17.60
2022-09-17T16:25:37.894Z,13.17
2022-09-17T16:28:10.221Z,15.07
2022-09-17T16:30:37.605Z,13.40
2022-09-17T16:33:06.708Z,12.10
2022-09-17T16:35:33.615Z,15.30
2022-09-17T16:38:00.499Z,12.10
2022-09-17T16:40:28.466Z,10.40
2022-09-17T16:42:55.516Z,13.90
2022-09-17T16:45:28.691Z,14.17
2022-09-17T16:47:56.606Z,16.63
2022-09-17T16:50:23.827Z,15.13
2022-09-17T16:52:50.822Z,11.67
2022-09-17T16:55:19.003Z,14.60
2022-09-17T16:57:46.220Z,16.60
2022-09-17T17:00:19.545Z,8.03
2022-09-17T17:02:54.258Z,9.47
2022-09-17T17:05:21.763Z,8.07
2022-09-17T17:07:49.133Z,11.47
2022-09-17T17:10:16.597Z,14.43
2022-09-17T17:12:43.672Z,11.10
2022-09-17T17:15:10.954Z,13.17
2022-09-17T17:17:37.939Z,14.17
2022-09-17T17:20:10.641Z,10.23
2022-09-17T17:22:37.770Z,12.13
2022-09-17T17:25:08.828Z,10.97
2022-09-17T17:27:35.975Z,11.77
2022-09-17T17:30:06.754Z,14.03
2022-09-17T17:32:41.450Z,14.40
2022-09-17T17:35:15.901Z,13.97
2022-09-17T17:37:51.322Z,13.13
2022-09-17T17:40:18.829Z,20.00
2022-09-17T17:42:47.360Z,21.73
2022-09-17T17:45:15.249Z,14.87
2022-09-17T17:47:42.120Z,12.57
2022-09-17T17:50:10.852Z,12.50
2022-09-17T17:52:40.228Z,10.97
2022-09-17T17:55:08.200Z,20.57
2022-09-17T17:57:35.168Z,16.00
2022-09-17T18:00:02.819Z,15.37
2022-09-17T18:02:29.743Z,16.60
2022-09-17T18:04:58.837Z,13.93
2022-09-17T18:07:29.403Z,13.43
2022-09-17T18:09:57.750Z,13.20
2022-09-17T18:12:26.974Z,16.30
2022-09-17T18:14:54.080Z,14.40
2022-09-17T18:17:20.989Z,13.97
2022-09-17T18:19:47.883Z,15.80
2022-09-17T18:22:14.848Z,12.73
2022-09-17T18:24:41.700Z,11.10
2022-09-17T18:27:09.926Z,13.20
2022-09-17T18:29:36.924Z,15.63
2022-09-17T18:32:03.843Z,10.80
2022-09-17T18:34:32.203Z,15.23
2022-09-17T18:36:59.030Z,14.60
2022-09-17T18:42:14.219Z,13.47
2022-09-17T18:44:41.131Z,12.10
2022-09-17T18:47:08.103Z,16.90
2022-09-17T18:49:34.988Z,8.70
2022-09-17T18:52:02.279Z,13.33
2022-09-17T18:54:29.153Z,17.53
2022-09-17T18:56:55.955Z,7.90
2022-09-17T18:59:24.365Z,10.07
2022-09-17T19:01:51.321Z,12.53
2022-09-17T19:04:18.507Z,12.63
2022-09-17T19:06:45.358Z,8.37
2022-09-17T19:09:12.376Z,11.27
2022-09-17T19:11:39.142Z,11.43
2022-09-17T19:14:08.699Z,15.80
2022-09-17T19:16:36.903Z,14.40
2022-09-17T19:19:06.934Z,16.77
2022-09-17T19:21:33.723Z,12.50
2022-09-17T19:24:02.699Z,12.90
2022-09-17T19:26:29.490Z,9.00
2022-09-17T19:28:58.911Z,10.47
2022-09-17T19:31:26.811Z,10.93
2022-09-17T19:33:56.178Z,14.80
2022-09-17T19:36:23.024Z,11.60
2022-09-17T19:38:50.055Z,14.27
2022-09-17T19:41:18.974Z,13.77
2022-09-17T19:43:46.824Z,11.90
2022-09-17T19:46:15.866Z,11.47
2022-09-17T19:48:48.361Z,13.30
2022-09-17T19:51:17.640Z,12.77
2022-09-17T19:53:48.697Z,15.70
2022-09-17T19:56:36.197Z,18.60
2022-09-17T19:59:14.281Z,18.53
2022-09-17T20:01:49.632Z,20.30
2022-09-17T20:04:20.162Z,19.67
2022-09-17T20:06:48.513Z,21.83
2022-09-17T20:09:15.472Z,20.40
2022-09-17T20:11:42.407Z,16.80
2022-09-17T20:14:12.845Z,23.57
2022-09-17T20:16:40.200Z,22.07
2022-09-17T20:19:08.012Z,15.77
2022-09-17T20:21:35.368Z,20.27
2022-09-17T20:24:05.963Z,20.77
2022-09-17T20:26:33.311Z,21.30
2022-09-17T20:29:00.645Z,17.93
2022-09-17T20:31:29.443Z,20.37
2022-09-17T20:34:00.144Z,16.73
2022-09-17T20:36:30.902Z,17.90
2022-09-17T20:39:23.152Z,20.20
2022-09-17T20:41:46.559Z,19.83
2022-09-17T20:44:13.783Z,19.53
2022-09-17T20:46:40.884Z,17.57
2022-09-17T20:49:08.540Z,12.80
2022-09-17T20:51:35.925Z,21.37
2022-09-17T20:54:03.253Z,17.93
2022-09-17T20:56:33.037Z,22.93
2022-09-17T20:59:09.410Z,23.30
2022-09-17T21:01:37.552Z,26.53
2022-09-17T21:04:06.811Z,19.80
2022-09-17T21:06:35.213Z,15.23
2022-09-17T21:09:02.919Z,22.50
2022-09-17T21:11:33.435Z,15.40
2022-09-17T21:14:02.203Z,17.00
2022-09-17T21:16:29.557Z,20.50
2022-09-17T21:18:58.241Z,15.00
2022-09-17T21:21:26.270Z,20.17
2022-09-17T21:23:53.902Z,19.03
2022-09-17T21:26:22.159Z,22.63
2022-09-17T21:28:51.059Z,15.83
2022-09-17T21:31:20.929Z,25.27
2022-09-17T21:33:50.943Z,20.27
2022-09-17T21:36:19.237Z,20.87
2022-09-17T21:38:50.620Z,18.77
2022-09-17T21:41:17.676Z,36.87
2022-09-17T21:43:45.152Z,22.83
2022-09-17T21:46:14.352Z,24.47
2022-09-17T21:48:45.268Z,20.40
2022-09-17T21:51:14.050Z,22.67
2022-09-17T21:53:42.000Z,16.73
2022-09-17T21:56:11.307Z,19.37
2022-09-17T21:58:38.661Z,29.97
2022-09-17T22:01:07.313Z,21.07
2022-09-17T22:03:34.648Z,21.27
2022-09-17T22:06:05.029Z,21.17
2022-09-17T22:08:32.680Z,17.90
2022-09-17T22:11:07.431Z,18.77
2022-09-17T22:13:34.719Z,20.83
2022-09-17T22:16:06.034Z,19.13
2022-09-17T22:18:34.180Z,22.10
2022-09-17T22:21:10.958Z,19.07
2022-09-17T22:23:37.789Z,17.57
2022-09-17T22:26:06.882Z,9.43
2022-09-17T22:28:35.067Z,18.87
2022-09-17T22:31:03.485Z,16.53
2022-09-17T22:33:33.020Z,15.77
2022-09-17T22:36:06.798Z,22.70
2022-09-17T22:38:34.225Z,24.47
2022-09-17T22:41:05.980Z,15.23
2022-09-17T22:43:33.424Z,17.20
2022-09-17T22:46:00.509Z,16.97
2022-09-17T22:48:27.636Z,17.67
2022-09-17T22:50:54.374Z,19.07
2022-09-17T22:53:22.814Z,17.10
2022-09-17T22:55:55.808Z,13.13
2022-09-17T22:58:24.633Z,16.50
2022-09-17T23:00:52.379Z,11.57
2022-09-17T23:03:19.636Z,15.27
2022-09-17T23:05:46.869Z,11.90
2022-09-17T23:08:14.247Z,18.17
2022-09-17T23:10:42.829Z,14.53
2022-09-17T23:13:11.311Z,15.37
2022-09-17T23:15:38.984Z,13.13
2022-09-17T23:18:07.332Z,12.63
2022-09-17T23:20:34.326Z,13.63
2022-09-17T23:23:01.337Z,17.60
2022-09-17T23:25:28.719Z,12.47
2022-09-17T23:27:57.347Z,18.57
2022-09-17T23:30:25.506Z,17.70
2022-09-17T23:32:53.887Z,14.33
2022-09-17T23:35:20.768Z,13.77
2022-09-17T23:37:47.943Z,17.73
2022-09-17T23:40:15.104Z,16.10
2022-09-17T23:42:42.022Z,14.73
2022-09-17T23:45:10.807Z,20.23
2022-09-17T23:47:37.689Z,14.33
2022-09-17T23:50:05.519Z,21.03
2022-09-17T23:52:32.722Z,19.00
2022-09-17T23:54:59.607Z,18.77
2022-09-17T23:57:28.061Z,12.77
2022-09-17T23:59:54.824Z,15.27
